NCAR-RAP Real-Time Weather Data

Output produced by METARs form (08 May 2021  01:31 UTC)
found at http://weather.rap.ucar.edu/surface/
 
KTVR 080053Z AUTO 00000KT 10SM CLR 18/10 A3009 RMK AO2 SLP194 T01780100
KTVR 072353Z AUTO 35003KT 10SM CLR 22/06 A3010 RMK AO2 SLP198 T02220061 10256 20222 57017
KTVR 072253Z AUTO 34004KT 10SM CLR 24/06 A3012 RMK AO2 SLP204 T02440061
KTVR 072153Z AUTO 30004KT 10SM CLR 25/08 A3013 RMK AO2 SLP207 T02500083
KTVR 072054Z AUTO 03007KT 10SM CLR 25/07 A3015 RMK AO2 SLP214 T02500072 58022
KTVR 071953Z AUTO 01008KT 10SM CLR 25/08 A3017 RMK AO2 SLP224 T02500078
KTVR 071853Z AUTO VRB06KT 10SM CLR 24/11 A3019 RMK AO2 SLP230 T02440106
KTVR 071753Z AUTO 04005KT 10SM CLR 24/12 A3021 RMK AO2 SLP236 T02390122 10244 20161 58005
KTVR 071653Z AUTO 05006KT 10SM CLR 23/12 A3023 RMK AO2 SLP243 T02280117
KTVR 071553Z AUTO 03008KT 10SM CLR 22/12 A3024 RMK AO2 SLP247 T02170122
KTVR 071453Z AUTO 05009KT 10SM CLR 21/12 A3023 RMK AO2 SLP242 T02060117 51015
KTVR 071353Z AUTO 03008KT 10SM CLR 19/12 A3022 RMK AO2 SLP239 T01890122
KTVR 071253Z AUTO 01009KT 10SM CLR 17/12 A3021 RMK AO2 SLP236 T01720117
KTVR 071153Z AUTO 36010G15KT 10SM CLR 16/10 A3018 RMK AO2 SLP227 T01610100 10167 20139 53021
KTVR 071053Z AUTO 35005KT 10SM CLR 16/09 A3015 RMK AO2 SLP216 T01610094